Bauang Weathercam more information Bauang Weathercam


Thunder radar more information blitzortung!


Rain radar more information rain snow radar


Visit other webcamsites:

Live CameraLivecam

Livecam

Youtube live stream



Nearby METAR Reports

   
RPLC - Angeles/Pampanga, Philippines
Distance from station: S 165 km
Updated: 24-10-2021 11:00
NOT Current
Overcast  
Overcast  
   Wind: SE 3.1 m/s
Wind: SE 3.1 m/s
Temperature: 28°C
Heat Index: 33°C
Dew Point: 25°C
Humidity: 84%
Barometer: 1014 hPa
Clouds: Overcast
Visibility: 4 km
Cloud details: Partly Cloudy 609.6 m,
Overcast 3048 m
RPLC 240300Z 14006KT 4000 SCT020 OVC100 28/25 Q1014 RERA RMK A2994
RPLI - Laoag Intl(Ph-Ar, Philippines
Distance from station: N 172 km
Updated: 27-10-2021 11:00
Mostly Cloudy  
Mostly Cloudy  
   Wind: North 3.1 m/s
Wind: North 3.1 m/s
Barometer: 1013 hPa
Clouds: Mostly Cloudy
Visibility: More than 10 km
Cloud details: Few Clouds 548.6 m,
Mostly Cloudy 8839.2 m
RPLI 270300Z 35006KT 300V030 9999 FEW018 BKN290 Q1013 NOSIG RMK A2991
RPLB - Olongapo/Subic, Philippines
Distance from station: S 203 km
Updated: 27-10-2021 10:00
Partly Cloudy  
Partly Cloudy  
   Wind: NE 5.7 m/s
Wind: NE 5.7 m/s
Temperature: 31°C
Heat Index: 34°C
Dew Point: 22°C
Humidity: 59%
Barometer: 1014 hPa
Clouds: Partly Cloudy
Visibility: More than 10 km
Cloud details: Few Clouds 609.6 m,
Partly Cloudy 9144 m
RPLB 270200Z 05011KT 9999 FEW020 SCT300 31/22 Q1014 NOSIG RMK A2994
RPLL - Ninoy Aquino Int, Philippines
Distance from station: SSE 246 km
Updated: 27-10-2021 11:00
Mostly Cloudy  
Mostly Cloudy  
   Wind: WNW 3.1 m/s
Wind: WNW 3.1 m/s
Temperature: 31°C
Heat Index: 37°C
Dew Point: 24°C
Humidity: 66%
Barometer: 1013 hPa
Clouds: Mostly Cloudy
Visibility: More than 10 km
Cloud details: Partly Cloudy 762 m,
Mostly Cloudy 2743.2 m
RPLL 270300Z 30006KT 270V330 9999 SCT025 BKN090 31/24 Q1013 NOSIG RMK A2991
RPMR - Romblon/Tablas I, Philippines
Distance from station: SSE 498 km
Updated: 06-07-2021 15:00
NOT Current
Nearby Showers, Mostly Cloudy  
Nearby Showers, Mostly Cloudy  
   Wind: South 4.6 m/s
Wind: South 4.6 m/s
Temperature: 31°C
Heat Index: 36°C
Dew Point: 23°C
Humidity: 62%
Barometer: 1007 hPa
Clouds: Mostly Cloudy
Visibility: More than 10 km
Cloud details: Few Clouds 548.6 m,
Mostly Cloudy 2438.4 m
RPMR 060700Z 17009KT 110V180 9999 VCSH FEW018CB BKN080 31/23 Q1007 RMK A2974 CB NNW VCSH NNW SW
RPVP - Puerto Princesa, Philippines
Distance from station: SSW 778 km
Updated: 06-07-2021 15:00
NOT Current
Overcast  
Overcast  
   Wind: South 20.6 m/s
Wind: South 20.6 m/s
Temperature: 28°C
Heat Index: 32°C
Dew Point: 24°C
Humidity: 79%
Barometer: 1007 hPa
Clouds: Overcast
Visibility: More than 10 km
Cloud details: Partly Cloudy 579.1 m,
Overcast 2438.4 m
RPVP 060700Z 18040KT 9999 SCT019 OVC080 28/24 Q1007 RMK A2974
RPVM - Mactan-Cebu, Philippines
Distance from station: SSE 800 km
Updated: 27-10-2021 11:00
Mostly Cloudy  
Mostly Cloudy  
   Wind: NE 4.6 m/s
Wind: NE 4.6 m/s
Temperature: 31°C
Heat Index: 37°C
Dew Point: 24°C
Humidity: 66%
Barometer: 1011 hPa
Clouds: Mostly Cloudy
Visibility: More than 10 km
Cloud details: Few Clouds 548.6 m,
Mostly Cloudy 9144 m
RPVM 270300Z 04009KT 9999 FEW018CB BKN300 31/24 Q1011 RMK A2985 CB SW-W-NW
RPMZ - Zamboanga (civ/A, Philippines
Distance from station: S 1090 km
Updated: 27-10-2021 11:00
Light Rain, Overcast  
Light Rain, Overcast  
   Wind: varies 1 m/s
Wind: varies 1 m/s
Temperature: 26°C
Dew Point: 25°C
Humidity: 94%
Barometer: 1012 hPa
Clouds: Overcast
Visibility: 9 km
Cloud details: Partly Cloudy 518.2 m,
Overcast 2438.4 m
RPMZ 270300Z VRB02KT 9000 -RA SCT017 OVC080 26/25 Q1012 RETS RMK A2988
RPMD - Davao/Francisco, Philippines
Distance from station: SSE 1198 km
Updated: 27-10-2021 11:00
Partly Cloudy  
Partly Cloudy  
   Wind: South 3.6 m/s
Wind: South 3.6 m/s
Temperature: 31°C
Heat Index: 37°C
Dew Point: 24°C
Humidity: 66%
Barometer: 1011 hPa
Clouds: Partly Cloudy
Visibility: More than 10 km
Cloud details: Partly Cloudy 487.7 m
RPMD 270300Z 18007KT 150V210 9999 SCT016 31/24 Q1011 RMK A2985

Script developed by  Saratoga-weather.org Adapted for the template by  Weerstation Leuven

You find our weather info also at:

Ambient Weather

WeatherCloud

Philippine Atmospheric, Geophysical and Astronomical Services Administration